sensor_id;sensor_type;location;lat;lon;timestamp;temperature;humidity
7900;DHT22;3995;50.856;4.404;2022-09-25T00:01:01;18.70;59.30
7900;DHT22;3995;50.856;4.404;2022-09-25T00:03:29;18.70;59.40
7900;DHT22;3995;50.856;4.404;2022-09-25T00:06:01;18.70;59.40
7900;DHT22;3995;50.856;4.404;2022-09-25T00:08:30;18.70;59.30
7900;DHT22;3995;50.856;4.404;2022-09-25T00:10:58;18.70;59.30
7900;DHT22;3995;50.856;4.404;2022-09-25T00:13:25;18.70;59.30
7900;DHT22;3995;50.856;4.404;2022-09-25T00:15:54;18.70;59.30
7900;DHT22;3995;50.856;4.404;2022-09-25T00:18:22;18.70;59.30
7900;DHT22;3995;50.856;4.404;2022-09-25T00:21:04;18.70;59.30
7900;DHT22;3995;50.856;4.404;2022-09-25T00:23:33;18.60;59.20
7900;DHT22;3995;50.856;4.404;2022-09-25T00:26:01;18.60;59.20
7900;DHT22;3995;50.856;4.404;2022-09-25T00:28:30;18.60;59.20
7900;DHT22;3995;50.856;4.404;2022-09-25T00:30:58;18.60;59.20
7900;DHT22;3995;50.856;4.404;2022-09-25T00:33:25;18.70;59.20
7900;DHT22;3995;50.856;4.404;2022-09-25T00:35:53;18.70;59.10
7900;DHT22;3995;50.856;4.404;2022-09-25T00:38:20;18.70;59.00
7900;DHT22;3995;50.856;4.404;2022-09-25T00:40:49;18.70;59.00
7900;DHT22;3995;50.856;4.404;2022-09-25T00:43:33;18.70;58.90
7900;DHT22;3995;50.856;4.404;2022-09-25T00:46:04;18.70;58.70
7900;DHT22;3995;50.856;4.404;2022-09-25T00:48:33;18.60;58.90
7900;DHT22;3995;50.856;4.404;2022-09-25T00:51:00;18.60;58.90
7900;DHT22;3995;50.856;4.404;2022-09-25T00:53:31;18.60;58.80
7900;DHT22;3995;50.856;4.404;2022-09-25T00:56:02;18.60;58.80
7900;DHT22;3995;50.856;4.404;2022-09-25T00:58:32;18.60;58.80
7900;DHT22;3995;50.856;4.404;2022-09-25T01:01:01;18.60;58.90
7900;DHT22;3995;50.856;4.404;2022-09-25T01:03:28;18.60;58.90
7900;DHT22;3995;50.856;4.404;2022-09-25T01:05:55;18.60;58.80
7900;DHT22;3995;50.856;4.404;2022-09-25T01:08:27;18.70;58.80
7900;DHT22;3995;50.856;4.404;2022-09-25T01:10:55;18.60;58.60
7900;DHT22;3995;50.856;4.404;2022-09-25T01:13:25;18.60;58.60
7900;DHT22;3995;50.856;4.404;2022-09-25T01:15:58;18.60;58.60
7900;DHT22;3995;50.856;4.404;2022-09-25T01:18:43;18.60;58.60
7900;DHT22;3995;50.856;4.404;2022-09-25T01:21:18;18.60;58.40
7900;DHT22;3995;50.856;4.404;2022-09-25T01:24:01;18.60;58.40
7900;DHT22;3995;50.856;4.404;2022-09-25T01:26:53;18.60;58.30
7900;DHT22;3995;50.856;4.404;2022-09-25T01:29:27;18.60;58.30
7900;DHT22;3995;50.856;4.404;2022-09-25T01:31:59;18.60;58.40
7900;DHT22;3995;50.856;4.404;2022-09-25T01:34:37;18.60;58.40
7900;DHT22;3995;50.856;4.404;2022-09-25T01:37:12;18.60;58.20
7900;DHT22;3995;50.856;4.404;2022-09-25T01:39:45;18.50;58.10
7900;DHT22;3995;50.856;4.404;2022-09-25T01:42:17;18.50;58.00
7900;DHT22;3995;50.856;4.404;2022-09-25T01:44:52;18.50;58.00
7900;DHT22;3995;50.856;4.404;2022-09-25T01:47:26;18.50;58.00
7900;DHT22;3995;50.856;4.404;2022-09-25T01:49:57;18.50;58.00
7900;DHT22;3995;50.856;4.404;2022-09-25T01:52:29;18.50;58.00
7900;DHT22;3995;50.856;4.404;2022-09-25T01:55:03;18.50;57.90
7900;DHT22;3995;50.856;4.404;2022-09-25T01:57:36;18.50;57.80
7900;DHT22;3995;50.856;4.404;2022-09-25T02:00:07;18.50;57.80
7900;DHT22;3995;50.856;4.404;2022-09-25T02:02:38;18.50;57.60
7900;DHT22;3995;50.856;4.404;2022-09-25T02:05:12;18.50;57.60
7900;DHT22;3995;50.856;4.404;2022-09-25T02:07:46;18.50;57.60
7900;DHT22;3995;50.856;4.404;2022-09-25T02:10:18;18.50;57.60
7900;DHT22;3995;50.856;4.404;2022-09-25T02:12:49;18.50;57.50
7900;DHT22;3995;50.856;4.404;2022-09-25T02:15:22;18.50;57.50
7900;DHT22;3995;50.856;4.404;2022-09-25T02:17:54;18.50;57.30
7900;DHT22;3995;50.856;4.404;2022-09-25T02:20:41;18.40;57.30
7900;DHT22;3995;50.856;4.404;2022-09-25T02:23:16;18.40;57.30
7900;DHT22;3995;50.856;4.404;2022-09-25T02:25:46;18.40;57.20
7900;DHT22;3995;50.856;4.404;2022-09-25T02:28:15;18.40;57.20
7900;DHT22;3995;50.856;4.404;2022-09-25T02:30:46;18.40;57.30
7900;DHT22;3995;50.856;4.404;2022-09-25T02:33:13;18.40;57.20
7900;DHT22;3995;50.856;4.404;2022-09-25T02:35:40;18.40;57.20
7900;DHT22;3995;50.856;4.404;2022-09-25T02:38:08;18.30;57.20
7900;DHT22;3995;50.856;4.404;2022-09-25T02:40:40;18.40;57.20
7900;DHT22;3995;50.856;4.404;2022-09-25T02:43:18;18.40;57.10
7900;DHT22;3995;50.856;4.404;2022-09-25T02:45:55;18.40;57.00
7900;DHT22;3995;50.856;4.404;2022-09-25T02:48:34;18.40;57.00
7900;DHT22;3995;50.856;4.404;2022-09-25T02:51:11;18.40;57.10
7900;DHT22;3995;50.856;4.404;2022-09-25T02:53:43;18.40;57.10
7900;DHT22;3995;50.856;4.404;2022-09-25T02:56:13;18.40;56.90
7900;DHT22;3995;50.856;4.404;2022-09-25T02:58:48;18.30;56.80
7900;DHT22;3995;50.856;4.404;2022-09-25T03:01:20;18.30;56.80
7900;DHT22;3995;50.856;4.404;2022-09-25T03:03:52;18.30;56.80
7900;DHT22;3995;50.856;4.404;2022-09-25T03:06:21;18.30;56.90
7900;DHT22;3995;50.856;4.404;2022-09-25T03:08:50;18.20;56.80
7900;DHT22;3995;50.856;4.404;2022-09-25T03:11:19;18.30;56.80
7900;DHT22;3995;50.856;4.404;2022-09-25T03:13:54;18.30;56.70
7900;DHT22;3995;50.856;4.404;2022-09-25T03:16:29;18.30;56.60
7900;DHT22;3995;50.856;4.404;2022-09-25T03:18:58;18.30;56.70
7900;DHT22;3995;50.856;4.404;2022-09-25T03:21:25;18.20;56.70
7900;DHT22;3995;50.856;4.404;2022-09-25T03:23:52;18.30;56.70
7900;DHT22;3995;50.856;4.404;2022-09-25T03:26:21;18.30;56.60
7900;DHT22;3995;50.856;4.404;2022-09-25T03:28:48;18.30;56.50
7900;DHT22;3995;50.856;4.404;2022-09-25T03:31:16;18.20;56.40
7900;DHT22;3995;50.856;4.404;2022-09-25T03:33:45;18.20;56.50
7900;DHT22;3995;50.856;4.404;2022-09-25T03:36:14;18.20;56.50
7900;DHT22;3995;50.856;4.404;2022-09-25T03:38:43;18.20;56.60
7900;DHT22;3995;50.856;4.404;2022-09-25T03:41:12;18.10;56.60
7900;DHT22;3995;50.856;4.404;2022-09-25T03:43:42;18.20;56.50
7900;DHT22;3995;50.856;4.404;2022-09-25T03:46:13;18.10;56.40
7900;DHT22;3995;50.856;4.404;2022-09-25T03:48:41;18.20;56.40
7900;DHT22;3995;50.856;4.404;2022-09-25T03:51:10;18.20;56.40
7900;DHT22;3995;50.856;4.404;2022-09-25T03:53:37;18.20;56.30
7900;DHT22;3995;50.856;4.404;2022-09-25T03:56:07;18.20;56.40
7900;DHT22;3995;50.856;4.404;2022-09-25T03:58:35;18.20;56.40
7900;DHT22;3995;50.856;4.404;2022-09-25T04:01:02;18.20;56.40
7900;DHT22;3995;50.856;4.404;2022-09-25T04:03:31;18.20;56.40
7900;DHT22;3995;50.856;4.404;2022-09-25T04:06:03;18.20;56.30
7900;DHT22;3995;50.856;4.404;2022-09-25T04:08:33;18.20;56.30
7900;DHT22;3995;50.856;4.404;2022-09-25T04:11:01;18.20;56.20
7900;DHT22;3995;50.856;4.404;2022-09-25T04:13:30;18.20;56.20
7900;DHT22;3995;50.856;4.404;2022-09-25T04:15:59;18.20;56.20
7900;DHT22;3995;50.856;4.404;2022-09-25T04:18:28;18.20;56.10
7900;DHT22;3995;50.856;4.404;2022-09-25T04:20:56;18.20;56.10
7900;DHT22;3995;50.856;4.404;2022-09-25T04:23:23;18.10;56.00
7900;DHT22;3995;50.856;4.404;2022-09-25T04:25:52;18.10;56.00
7900;DHT22;3995;50.856;4.404;2022-09-25T04:28:20;18.20;56.10
7900;DHT22;3995;50.856;4.404;2022-09-25T04:30:48;18.10;56.10
7900;DHT22;3995;50.856;4.404;2022-09-25T04:33:16;18.10;56.10
7900;DHT22;3995;50.856;4.404;2022-09-25T04:36:01;18.10;56.00
7900;DHT22;3995;50.856;4.404;2022-09-25T04:38:28;18.10;56.10
7900;DHT22;3995;50.856;4.404;2022-09-25T04:40:59;18.10;56.10
7900;DHT22;3995;50.856;4.404;2022-09-25T04:43:27;18.10;56.10
7900;DHT22;3995;50.856;4.404;2022-09-25T04:45:54;18.00;56.00
7900;DHT22;3995;50.856;4.404;2022-09-25T04:48:26;18.10;56.00
7900;DHT22;3995;50.856;4.404;2022-09-25T04:50:53;18.10;56.00
7900;DHT22;3995;50.856;4.404;2022-09-25T04:53:20;18.10;56.00
7900;DHT22;3995;50.856;4.404;2022-09-25T04:55:48;18.00;55.80
7900;DHT22;3995;50.856;4.404;2022-09-25T04:58:16;17.90;55.90
7900;DHT22;3995;50.856;4.404;2022-09-25T05:00:43;17.90;56.00
7900;DHT22;3995;50.856;4.404;2022-09-25T05:03:10;17.90;56.10
7900;DHT22;3995;50.856;4.404;2022-09-25T05:05:37;17.90;56.10
7900;DHT22;3995;50.856;4.404;2022-09-25T05:08:05;17.90;56.00
7900;DHT22;3995;50.856;4.404;2022-09-25T05:10:33;17.90;55.90
7900;DHT22;3995;50.856;4.404;2022-09-25T05:13:01;17.90;55.90
7900;DHT22;3995;50.856;4.404;2022-09-25T05:15:32;17.90;55.90
7900;DHT22;3995;50.856;4.404;2022-09-25T05:18:00;17.80;55.80
7900;DHT22;3995;50.856;4.404;2022-09-25T05:20:28;17.80;55.80
7900;DHT22;3995;50.856;4.404;2022-09-25T05:22:56;17.80;55.90
7900;DHT22;3995;50.856;4.404;2022-09-25T05:25:23;17.70;55.80
7900;DHT22;3995;50.856;4.404;2022-09-25T05:27:51;17.70;56.40
7900;DHT22;3995;50.856;4.404;2022-09-25T05:30:20;17.70;55.90
7900;DHT22;3995;50.856;4.404;2022-09-25T05:32:50;17.60;55.90
7900;DHT22;3995;50.856;4.404;2022-09-25T05:35:19;17.60;56.00
7900;DHT22;3995;50.856;4.404;2022-09-25T05:37:46;17.50;56.00
7900;DHT22;3995;50.856;4.404;2022-09-25T05:40:15;17.50;56.00
7900;DHT22;3995;50.856;4.404;2022-09-25T05:42:44;17.50;56.00
7900;DHT22;3995;50.856;4.404;2022-09-25T05:45:12;17.50;56.10
7900;DHT22;3995;50.856;4.404;2022-09-25T05:47:40;17.50;56.10
7900;DHT22;3995;50.856;4.404;2022-09-25T05:50:11;17.50;56.10
7900;DHT22;3995;50.856;4.404;2022-09-25T05:52:39;17.50;56.10
7900;DHT22;3995;50.856;4.404;2022-09-25T05:55:07;17.50;56.70
7900;DHT22;3995;50.856;4.404;2022-09-25T05:57:36;17.50;56.10
7900;DHT22;3995;50.856;4.404;2022-09-25T06:00:05;17.50;56.10
7900;DHT22;3995;50.856;4.404;2022-09-25T06:02:33;17.40;56.10
7900;DHT22;3995;50.856;4.404;2022-09-25T06:05:01;17.40;56.20
7900;DHT22;3995;50.856;4.404;2022-09-25T06:07:29;17.40;56.10
7900;DHT22;3995;50.856;4.404;2022-09-25T06:09:57;17.40;56.20
7900;DHT22;3995;50.856;4.404;2022-09-25T06:12:23;17.40;56.20
7900;DHT22;3995;50.856;4.404;2022-09-25T06:14:51;17.40;56.20
7900;DHT22;3995;50.856;4.404;2022-09-25T06:17:18;17.40;56.20
7900;DHT22;3995;50.856;4.404;2022-09-25T06:19:46;17.40;56.10
7900;DHT22;3995;50.856;4.404;2022-09-25T06:22:13;17.40;56.10
7900;DHT22;3995;50.856;4.404;2022-09-25T06:24:43;17.40;56.10
7900;DHT22;3995;50.856;4.404;2022-09-25T06:27:10;17.40;56.20
7900;DHT22;3995;50.856;4.404;2022-09-25T06:29:37;17.40;56.30
7900;DHT22;3995;50.856;4.404;2022-09-25T06:32:04;17.40;56.40
7900;DHT22;3995;50.856;4.404;2022-09-25T06:34:31;17.40;56.40
7900;DHT22;3995;50.856;4.404;2022-09-25T06:36:59;17.40;56.50
7900;DHT22;3995;50.856;4.404;2022-09-25T06:39:28;17.40;56.50
7900;DHT22;3995;50.856;4.404;2022-09-25T06:41:59;17.40;56.60
7900;DHT22;3995;50.856;4.404;2022-09-25T06:44:26;17.40;56.60
7900;DHT22;3995;50.856;4.404;2022-09-25T06:46:53;17.30;56.50
7900;DHT22;3995;50.856;4.404;2022-09-25T06:49:19;17.30;56.60
7900;DHT22;3995;50.856;4.404;2022-09-25T06:51:46;17.30;56.70
7900;DHT22;3995;50.856;4.404;2022-09-25T06:54:15;17.30;56.80
7900;DHT22;3995;50.856;4.404;2022-09-25T06:56:43;17.30;56.90
7900;DHT22;3995;50.856;4.404;2022-09-25T06:59:11;17.30;57.00
7900;DHT22;3995;50.856;4.404;2022-09-25T07:01:38;17.40;57.20
7900;DHT22;3995;50.856;4.404;2022-09-25T07:04:05;17.40;57.30
7900;DHT22;3995;50.856;4.404;2022-09-25T07:06:31;17.40;57.20
7900;DHT22;3995;50.856;4.404;2022-09-25T07:08:59;17.40;57.20
7900;DHT22;3995;50.856;4.404;2022-09-25T07:11:28;17.50;57.40
7900;DHT22;3995;50.856;4.404;2022-09-25T07:13:58;17.50;57.40
7900;DHT22;3995;50.856;4.404;2022-09-25T07:16:28;17.50;57.40
7900;DHT22;3995;50.856;4.404;2022-09-25T07:18:57;17.50;57.30
7900;DHT22;3995;50.856;4.404;2022-09-25T07:21:26;17.60;57.40
7900;DHT22;3995;50.856;4.404;2022-09-25T07:23:55;17.60;57.30
7900;DHT22;3995;50.856;4.404;2022-09-25T07:26:25;17.60;57.40
7900;DHT22;3995;50.856;4.404;2022-09-25T07:28:54;17.60;57.30
7900;DHT22;3995;50.856;4.404;2022-09-25T07:31:24;17.70;57.40
7900;DHT22;3995;50.856;4.404;2022-09-25T07:33:54;17.70;57.50
7900;DHT22;3995;50.856;4.404;2022-09-25T07:36:21;17.70;57.50
7900;DHT22;3995;50.856;4.404;2022-09-25T07:38:49;17.70;57.50
7900;DHT22;3995;50.856;4.404;2022-09-25T07:41:17;17.70;57.40
7900;DHT22;3995;50.856;4.404;2022-09-25T07:43:50;17.80;57.40
7900;DHT22;3995;50.856;4.404;2022-09-25T07:46:17;17.80;57.40
7900;DHT22;3995;50.856;4.404;2022-09-25T07:48:47;17.80;57.40
7900;DHT22;3995;50.856;4.404;2022-09-25T07:51:16;17.80;57.30
7900;DHT22;3995;50.856;4.404;2022-09-25T07:53:43;17.80;57.80
7900;DHT22;3995;50.856;4.404;2022-09-25T07:56:11;17.90;57.30
7900;DHT22;3995;50.856;4.404;2022-09-25T07:58:39;17.90;57.30
7900;DHT22;3995;50.856;4.404;2022-09-25T08:01:11;17.90;57.30
7900;DHT22;3995;50.856;4.404;2022-09-25T08:03:39;17.90;57.20
7900;DHT22;3995;50.856;4.404;2022-09-25T08:06:08;17.90;57.20
7900;DHT22;3995;50.856;4.404;2022-09-25T08:08:39;17.90;57.10
7900;DHT22;3995;50.856;4.404;2022-09-25T08:11:07;17.90;57.10
7900;DHT22;3995;50.856;4.404;2022-09-25T08:13:36;17.90;57.10
7900;DHT22;3995;50.856;4.404;2022-09-25T08:16:05;17.90;57.10
7900;DHT22;3995;50.856;4.404;2022-09-25T08:18:32;17.90;57.10
7900;DHT22;3995;50.856;4.404;2022-09-25T08:21:00;17.90;57.10
7900;DHT22;3995;50.856;4.404;2022-09-25T08:23:28;18.00;57.10
7900;DHT22;3995;50.856;4.404;2022-09-25T08:25:57;18.00;57.20
7900;DHT22;3995;50.856;4.404;2022-09-25T08:28:24;18.00;57.20
7900;DHT22;3995;50.856;4.404;2022-09-25T08:30:51;18.00;57.30
7900;DHT22;3995;50.856;4.404;2022-09-25T08:33:18;18.10;57.50
7900;DHT22;3995;50.856;4.404;2022-09-25T08:35:53;18.10;57.40
7900;DHT22;3995;50.856;4.404;2022-09-25T08:38:21;18.10;57.10
7900;DHT22;3995;50.856;4.404;2022-09-25T08:40:51;18.10;57.20
7900;DHT22;3995;50.856;4.404;2022-09-25T08:43:24;18.10;57.20
7900;DHT22;3995;50.856;4.404;2022-09-25T08:45:52;18.10;57.20
7900;DHT22;3995;50.856;4.404;2022-09-25T08:48:42;18.10;57.20
7900;DHT22;3995;50.856;4.404;2022-09-25T08:51:29;18.10;57.10
7900;DHT22;3995;50.856;4.404;2022-09-25T08:53:57;18.10;57.20
7900;DHT22;3995;50.856;4.404;2022-09-25T08:56:26;18.10;57.10
7900;DHT22;3995;50.856;4.404;2022-09-25T08:59:00;18.20;57.20
7900;DHT22;3995;50.856;4.404;2022-09-25T09:01:40;18.20;57.30
7900;DHT22;3995;50.856;4.404;2022-09-25T09:04:16;18.30;57.30
7900;DHT22;3995;50.856;4.404;2022-09-25T09:06:46;18.30;57.30
7900;DHT22;3995;50.856;4.404;2022-09-25T09:09:18;18.30;57.20
7900;DHT22;3995;50.856;4.404;2022-09-25T09:11:50;18.30;56.90
7900;DHT22;3995;50.856;4.404;2022-09-25T09:14:25;18.30;56.60
7900;DHT22;3995;50.856;4.404;2022-09-25T09:16:58;18.30;56.40
7900;DHT22;3995;50.856;4.404;2022-09-25T09:19:26;18.30;56.20
7900;DHT22;3995;50.856;4.404;2022-09-25T09:22:03;18.30;56.60
7900;DHT22;3995;50.856;4.404;2022-09-25T09:24:42;18.40;55.90
7900;DHT22;3995;50.856;4.404;2022-09-25T09:27:34;18.40;55.80
7900;DHT22;3995;50.856;4.404;2022-09-25T09:30:13;18.40;55.70
7900;DHT22;3995;50.856;4.404;2022-09-25T09:35:49;18.40;55.50
7900;DHT22;3995;50.856;4.404;2022-09-25T09:38:31;18.40;55.60
7900;DHT22;3995;50.856;4.404;2022-09-25T09:41:07;18.50;55.70
7900;DHT22;3995;50.856;4.404;2022-09-25T09:43:54;18.50;55.60
7900;DHT22;3995;50.856;4.404;2022-09-25T09:46:33;18.50;55.20
7900;DHT22;3995;50.856;4.404;2022-09-25T09:49:08;18.50;55.00
7900;DHT22;3995;50.856;4.404;2022-09-25T09:51:40;18.50;54.90
7900;DHT22;3995;50.856;4.404;2022-09-25T09:54:12;18.50;55.30
7900;DHT22;3995;50.856;4.404;2022-09-25T09:56:46;18.50;54.80
7900;DHT22;3995;50.856;4.404;2022-09-25T09:59:15;18.50;54.50
7900;DHT22;3995;50.856;4.404;2022-09-25T10:01:50;18.60;54.30
7900;DHT22;3995;50.856;4.404;2022-09-25T10:04:22;18.60;54.10
7900;DHT22;3995;50.856;4.404;2022-09-25T10:06:54;18.70;55.00
7900;DHT22;3995;50.856;4.404;2022-09-25T10:09:24;18.70;54.50
7900;DHT22;3995;50.856;4.404;2022-09-25T10:11:58;18.80;54.70
7900;DHT22;3995;50.856;4.404;2022-09-25T10:14:32;18.80;54.30
7900;DHT22;3995;50.856;4.404;2022-09-25T10:17:03;18.80;53.80
7900;DHT22;3995;50.856;4.404;2022-09-25T10:19:40;18.90;53.60
7900;DHT22;3995;50.856;4.404;2022-09-25T10:22:12;18.80;53.70
7900;DHT22;3995;50.856;4.404;2022-09-25T10:24:48;18.80;53.90
7900;DHT22;3995;50.856;4.404;2022-09-25T10:27:24;18.90;53.20
7900;DHT22;3995;50.856;4.404;2022-09-25T10:30:17;19.00;52.80
7900;DHT22;3995;50.856;4.404;2022-09-25T10:32:54;19.10;52.80
7900;DHT22;3995;50.856;4.404;2022-09-25T10:35:23;19.10;53.10
7900;DHT22;3995;50.856;4.404;2022-09-25T10:37:52;19.10;52.50
7900;DHT22;3995;50.856;4.404;2022-09-25T10:40:25;19.10;52.30
7900;DHT22;3995;50.856;4.404;2022-09-25T10:43:13;19.10;52.70
7900;DHT22;3995;50.856;4.404;2022-09-25T10:45:41;19.10;52.70
7900;DHT22;3995;50.856;4.404;2022-09-25T10:48:25;19.00;52.80
7900;DHT22;3995;50.856;4.404;2022-09-25T10:51:11;19.10;52.80
7900;DHT22;3995;50.856;4.404;2022-09-25T10:53:42;19.30;53.00
7900;DHT22;3995;50.856;4.404;2022-09-25T10:56:12;19.40;52.90
7900;DHT22;3995;50.856;4.404;2022-09-25T10:58:41;19.60;52.80
7900;DHT22;3995;50.856;4.404;2022-09-25T11:01:10;19.80;52.50
7900;DHT22;3995;50.856;4.404;2022-09-25T11:03:48;20.00;52.20
7900;DHT22;3995;50.856;4.404;2022-09-25T11:06:21;20.20;51.70
7900;DHT22;3995;50.856;4.404;2022-09-25T11:08:56;20.20;51.40
7900;DHT22;3995;50.856;4.404;2022-09-25T11:11:27;20.10;51.20
7900;DHT22;3995;50.856;4.404;2022-09-25T11:13:59;20.00;51.30
7900;DHT22;3995;50.856;4.404;2022-09-25T11:16:45;20.00;51.40
7900;DHT22;3995;50.856;4.404;2022-09-25T11:19:17;20.00;51.10
7900;DHT22;3995;50.856;4.404;2022-09-25T11:21:54;20.00;51.20
7900;DHT22;3995;50.856;4.404;2022-09-25T11:24:29;19.90;51.30
7900;DHT22;3995;50.856;4.404;2022-09-25T11:27:06;19.90;51.50
7900;DHT22;3995;50.856;4.404;2022-09-25T11:29:42;19.80;51.10
7900;DHT22;3995;50.856;4.404;2022-09-25T11:32:18;19.80;51.20
7900;DHT22;3995;50.856;4.404;2022-09-25T11:34:59;19.80;51.30
7900;DHT22;3995;50.856;4.404;2022-09-25T11:37:36;19.80;51.30
7900;DHT22;3995;50.856;4.404;2022-09-25T11:40:21;19.80;51.20
7900;DHT22;3995;50.856;4.404;2022-09-25T11:43:12;19.80;51.20
7900;DHT22;3995;50.856;4.404;2022-09-25T11:45:44;19.70;51.30
7900;DHT22;3995;50.856;4.404;2022-09-25T11:48:17;19.70;51.00
7900;DHT22;3995;50.856;4.404;2022-09-25T11:50:55;19.80;50.80
7900;DHT22;3995;50.856;4.404;2022-09-25T11:53:31;19.80;50.90
7900;DHT22;3995;50.856;4.404;2022-09-25T11:56:13;19.90;51.10
7900;DHT22;3995;50.856;4.404;2022-09-25T11:58:50;19.90;51.00
7900;DHT22;3995;50.856;4.404;2022-09-25T12:01:28;19.80;50.90
7900;DHT22;3995;50.856;4.404;2022-09-25T12:04:34;19.80;50.90
7900;DHT22;3995;50.856;4.404;2022-09-25T12:07:18;19.80;50.60
7900;DHT22;3995;50.856;4.404;2022-09-25T12:10:11;19.80;50.90
7900;DHT22;3995;50.856;4.404;2022-09-25T12:12:47;19.80;50.60
7900;DHT22;3995;50.856;4.404;2022-09-25T12:15:25;19.80;50.30
7900;DHT22;3995;50.856;4.404;2022-09-25T12:17:59;19.80;50.10
7900;DHT22;3995;50.856;4.404;2022-09-25T12:20:32;19.80;50.30
7900;DHT22;3995;50.856;4.404;2022-09-25T12:23:23;19.80;50.40
7900;DHT22;3995;50.856;4.404;2022-09-25T12:26:07;19.80;50.20
7900;DHT22;3995;50.856;4.404;2022-09-25T12:28:44;19.80;50.40
7900;DHT22;3995;50.856;4.404;2022-09-25T12:31:24;19.80;50.60
7900;DHT22;3995;50.856;4.404;2022-09-25T12:33:59;19.80;50.60
7900;DHT22;3995;50.856;4.404;2022-09-25T12:36:34;19.80;51.00
7900;DHT22;3995;50.856;4.404;2022-09-25T12:39:12;19.80;50.40
7900;DHT22;3995;50.856;4.404;2022-09-25T12:41:48;19.80;50.40
7900;DHT22;3995;50.856;4.404;2022-09-25T12:44:22;19.80;49.70
7900;DHT22;3995;50.856;4.404;2022-09-25T12:46:56;19.80;50.00
7900;DHT22;3995;50.856;4.404;2022-09-25T12:49:33;19.80;50.10
7900;DHT22;3995;50.856;4.404;2022-09-25T12:52:08;19.80;50.20
7900;DHT22;3995;50.856;4.404;2022-09-25T12:54:46;19.80;50.10
7900;DHT22;3995;50.856;4.404;2022-09-25T12:57:20;19.80;49.90
7900;DHT22;3995;50.856;4.404;2022-09-25T12:59:53;19.70;50.00
7900;DHT22;3995;50.856;4.404;2022-09-25T13:02:25;19.70;49.90
7900;DHT22;3995;50.856;4.404;2022-09-25T13:04:59;19.70;49.90
7900;DHT22;3995;50.856;4.404;2022-09-25T13:07:33;19.70;50.20
7900;DHT22;3995;50.856;4.404;2022-09-25T13:10:15;19.70;50.10
7900;DHT22;3995;50.856;4.404;2022-09-25T13:12:44;19.70;50.50
7900;DHT22;3995;50.856;4.404;2022-09-25T13:15:16;19.60;50.50
7900;DHT22;3995;50.856;4.404;2022-09-25T13:17:44;19.60;50.60
7900;DHT22;3995;50.856;4.404;2022-09-25T13:20:44;19.60;50.50
7900;DHT22;3995;50.856;4.404;2022-09-25T13:23:15;19.70;50.40
7900;DHT22;3995;50.856;4.404;2022-09-25T13:25:48;19.60;50.40
7900;DHT22;3995;50.856;4.404;2022-09-25T13:28:20;19.60;50.50
7900;DHT22;3995;50.856;4.404;2022-09-25T13:31:03;19.60;50.40
7900;DHT22;3995;50.856;4.404;2022-09-25T13:33:36;19.70;50.30
7900;DHT22;3995;50.856;4.404;2022-09-25T13:36:10;19.70;50.40
7900;DHT22;3995;50.856;4.404;2022-09-25T13:38:40;19.70;50.20
7900;DHT22;3995;50.856;4.404;2022-09-25T13:41:30;19.60;50.10
7900;DHT22;3995;50.856;4.404;2022-09-25T13:47:55;19.70;50.10
7900;DHT22;3995;50.856;4.404;2022-09-25T13:50:34;19.70;50.20
7900;DHT22;3995;50.856;4.404;2022-09-25T13:53:24;19.70;50.40
7900;DHT22;3995;50.856;4.404;2022-09-25T13:56:12;19.70;50.30
7900;DHT22;3995;50.856;4.404;2022-09-25T14:01:56;19.70;48.60
7900;DHT22;3995;50.856;4.404;2022-09-25T14:04:32;19.70;48.90
7900;DHT22;3995;50.856;4.404;2022-09-25T14:07:11;19.70;49.10
7900;DHT22;3995;50.856;4.404;2022-09-25T14:09:43;19.70;48.70
7900;DHT22;3995;50.856;4.404;2022-09-25T14:12:20;19.70;48.90
7900;DHT22;3995;50.856;4.404;2022-09-25T14:14:52;19.70;49.10
7900;DHT22;3995;50.856;4.404;2022-09-25T14:17:24;19.70;49.40
7900;DHT22;3995;50.856;4.404;2022-09-25T14:19:55;19.70;49.50
7900;DHT22;3995;50.856;4.404;2022-09-25T14:22:35;19.70;49.50
7900;DHT22;3995;50.856;4.404;2022-09-25T14:25:23;19.80;49.60
7900;DHT22;3995;50.856;4.404;2022-09-25T14:27:52;19.80;49.60
7900;DHT22;3995;50.856;4.404;2022-09-25T14:30:20;19.70;49.70
7900;DHT22;3995;50.856;4.404;2022-09-25T14:33:05;19.70;49.80
7900;DHT22;3995;50.856;4.404;2022-09-25T14:35:39;19.80;49.80
7900;DHT22;3995;50.856;4.404;2022-09-25T14:38:42;19.80;49.80
7900;DHT22;3995;50.856;4.404;2022-09-25T14:41:43;19.80;49.40
7900;DHT22;3995;50.856;4.404;2022-09-25T14:47:06;19.80;49.60
7900;DHT22;3995;50.856;4.404;2022-09-25T14:49:38;19.80;49.80
7900;DHT22;3995;50.856;4.404;2022-09-25T14:52:09;19.80;49.60
7900;DHT22;3995;50.856;4.404;2022-09-25T14:54:41;19.80;49.60
7900;DHT22;3995;50.856;4.404;2022-09-25T14:57:14;19.80;49.70
7900;DHT22;3995;50.856;4.404;2022-09-25T14:59:44;19.80;49.80
7900;DHT22;3995;50.856;4.404;2022-09-25T15:02:17;19.80;49.70
7900;DHT22;3995;50.856;4.404;2022-09-25T15:04:58;19.90;49.50
7900;DHT22;3995;50.856;4.404;2022-09-25T15:07:57;19.80;49.50
7900;DHT22;3995;50.856;4.404;2022-09-25T15:10:29;19.80;49.60
7900;DHT22;3995;50.856;4.404;2022-09-25T15:13:09;19.80;49.50
7900;DHT22;3995;50.856;4.404;2022-09-25T15:15:39;19.80;49.50
7900;DHT22;3995;50.856;4.404;2022-09-25T15:18:27;19.70;49.50
7900;DHT22;3995;50.856;4.404;2022-09-25T15:20:56;19.70;49.20
7900;DHT22;3995;50.856;4.404;2022-09-25T15:23:24;19.80;49.10
7900;DHT22;3995;50.856;4.404;2022-09-25T15:25:53;19.80;49.20
7900;DHT22;3995;50.856;4.404;2022-09-25T15:28:23;19.80;48.70
7900;DHT22;3995;50.856;4.404;2022-09-25T15:30:56;19.80;48.90
7900;DHT22;3995;50.856;4.404;2022-09-25T15:33:25;19.70;49.40
7900;DHT22;3995;50.856;4.404;2022-09-25T15:35:56;19.70;49.10
7900;DHT22;3995;50.856;4.404;2022-09-25T15:38:28;19.70;48.70
7900;DHT22;3995;50.856;4.404;2022-09-25T15:40:56;19.70;48.50
7900;DHT22;3995;50.856;4.404;2022-09-25T15:43:23;19.70;48.50
7900;DHT22;3995;50.856;4.404;2022-09-25T15:45:55;19.70;48.40
7900;DHT22;3995;50.856;4.404;2022-09-25T15:48:26;19.70;48.50
7900;DHT22;3995;50.856;4.404;2022-09-25T15:51:00;19.70;48.50
7900;DHT22;3995;50.856;4.404;2022-09-25T15:53:29;19.70;48.40
7900;DHT22;3995;50.856;4.404;2022-09-25T15:56:04;19.70;48.60
7900;DHT22;3995;50.856;4.404;2022-09-25T15:58:41;19.80;48.20
7900;DHT22;3995;50.856;4.404;2022-09-25T16:01:11;19.70;48.20
7900;DHT22;3995;50.856;4.404;2022-09-25T16:03:56;19.70;48.20
7900;DHT22;3995;50.856;4.404;2022-09-25T16:06:43;19.70;48.20
7900;DHT22;3995;50.856;4.404;2022-09-25T16:09:28;19.70;48.20
7900;DHT22;3995;50.856;4.404;2022-09-25T16:12:17;19.70;48.10
7900;DHT22;3995;50.856;4.404;2022-09-25T16:14:45;19.70;48.00
7900;DHT22;3995;50.856;4.404;2022-09-25T16:17:19;19.60;47.90
7900;DHT22;3995;50.856;4.404;2022-09-25T16:19:57;19.60;47.90
7900;DHT22;3995;50.856;4.404;2022-09-25T16:22:34;19.70;48.00
7900;DHT22;3995;50.856;4.404;2022-09-25T16:25:01;19.70;48.00
7900;DHT22;3995;50.856;4.404;2022-09-25T16:27:31;19.60;47.90
7900;DHT22;3995;50.856;4.404;2022-09-25T16:30:00;19.60;48.10
7900;DHT22;3995;50.856;4.404;2022-09-25T16:32:28;19.60;48.40
7900;DHT22;3995;50.856;4.404;2022-09-25T16:34:58;19.60;48.90
7900;DHT22;3995;50.856;4.404;2022-09-25T16:37:29;19.60;49.30
7900;DHT22;3995;50.856;4.404;2022-09-25T16:40:17;19.60;49.60
7900;DHT22;3995;50.856;4.404;2022-09-25T16:42:45;19.70;50.00
7900;DHT22;3995;50.856;4.404;2022-09-25T16:45:15;19.60;50.30
7900;DHT22;3995;50.856;4.404;2022-09-25T16:47:42;19.60;50.50
7900;DHT22;3995;50.856;4.404;2022-09-25T16:50:11;19.60;50.60